sensor_id;sensor_type;location;lat;lon;timestamp;temperature;humidity
26803;DHT22;14378;51.796;5.808;2023-05-24T00:05:09;10.40;99.90
26803;DHT22;14378;51.796;5.808;2023-05-24T00:07:10;10.40;99.90
26803;DHT22;14378;51.796;5.808;2023-05-24T00:09:11;10.40;99.90
26803;DHT22;14378;51.796;5.808;2023-05-24T00:11:12;10.30;99.90
26803;DHT22;14378;51.796;5.808;2023-05-24T00:13:17;10.30;99.90
26803;DHT22;14378;51.796;5.808;2023-05-24T00:15:18;10.30;99.90
26803;DHT22;14378;51.796;5.808;2023-05-24T00:17:20;10.30;99.90
26803;DHT22;14378;51.796;5.808;2023-05-24T00:19:21;10.30;99.90
26803;DHT22;14378;51.796;5.808;2023-05-24T00:21:22;10.30;99.90
26803;DHT22;14378;51.796;5.808;2023-05-24T00:23:24;10.30;99.90
26803;DHT22;14378;51.796;5.808;2023-05-24T00:25:25;10.20;99.90
26803;DHT22;14378;51.796;5.808;2023-05-24T00:27:26;10.20;99.90
26803;DHT22;14378;51.796;5.808;2023-05-24T00:29:27;10.20;99.90
26803;DHT22;14378;51.796;5.808;2023-05-24T00:31:28;10.20;99.90
26803;DHT22;14378;51.796;5.808;2023-05-24T00:33:29;10.10;99.90
26803;DHT22;14378;51.796;5.808;2023-05-24T00:35:30;10.10;99.90
26803;DHT22;14378;51.796;5.808;2023-05-24T00:37:31;10.10;99.90
26803;DHT22;14378;51.796;5.808;2023-05-24T00:39:32;10.00;99.90
26803;DHT22;14378;51.796;5.808;2023-05-24T00:41:33;10.00;99.90
26803;DHT22;14378;51.796;5.808;2023-05-24T00:43:34;10.00;99.90
26803;DHT22;14378;51.796;5.808;2023-05-24T00:45:36;10.00;99.90
26803;DHT22;14378;51.796;5.808;2023-05-24T00:47:38;9.90;99.90
26803;DHT22;14378;51.796;5.808;2023-05-24T00:49:39;10.00;99.90
26803;DHT22;14378;51.796;5.808;2023-05-24T00:51:41;9.90;99.90
26803;DHT22;14378;51.796;5.808;2023-05-24T00:53:45;9.90;99.90
26803;DHT22;14378;51.796;5.808;2023-05-24T00:55:46;9.80;99.90
26803;DHT22;14378;51.796;5.808;2023-05-24T00:57:50;9.80;99.90
26803;DHT22;14378;51.796;5.808;2023-05-24T00:59:52;9.80;99.90
26803;DHT22;14378;51.796;5.808;2023-05-24T01:01:54;9.80;99.90
26803;DHT22;14378;51.796;5.808;2023-05-24T01:03:56;9.80;99.90
26803;DHT22;14378;51.796;5.808;2023-05-24T01:06:02;9.70;99.90
26803;DHT22;14378;51.796;5.808;2023-05-24T01:10:18;9.70;99.90
26803;DHT22;14378;51.796;5.808;2023-05-24T01:15:02;9.60;99.90
26803;DHT22;14378;51.796;5.808;2023-05-24T01:24:28;9.50;99.90
26803;DHT22;14378;51.796;5.808;2023-05-24T01:28:43;9.40;99.90
26803;DHT22;14378;51.796;5.808;2023-05-24T01:30:45;9.50;99.90
26803;DHT22;14378;51.796;5.808;2023-05-24T01:32:46;9.50;99.90
26803;DHT22;14378;51.796;5.808;2023-05-24T01:34:47;9.50;99.90
26803;DHT22;14378;51.796;5.808;2023-05-24T01:36:50;9.40;99.90
26803;DHT22;14378;51.796;5.808;2023-05-24T01:38:53;9.40;99.90
26803;DHT22;14378;51.796;5.808;2023-05-24T01:41:11;9.40;99.90
26803;DHT22;14378;51.796;5.808;2023-05-24T01:45:45;9.30;99.90
26803;DHT22;14378;51.796;5.808;2023-05-24T01:48:07;9.30;99.90
26803;DHT22;14378;51.796;5.808;2023-05-24T01:50:27;9.30;99.90
26803;DHT22;14378;51.796;5.808;2023-05-24T01:52:31;9.30;99.90
26803;DHT22;14378;51.796;5.808;2023-05-24T01:54:38;9.30;99.90
26803;DHT22;14378;51.796;5.808;2023-05-24T01:56:43;9.20;99.90
26803;DHT22;14378;51.796;5.808;2023-05-24T01:58:46;9.20;99.90
26803;DHT22;14378;51.796;5.808;2023-05-24T02:00:47;9.20;99.90
26803;DHT22;14378;51.796;5.808;2023-05-24T02:02:53;9.10;99.90
26803;DHT22;14378;51.796;5.808;2023-05-24T02:04:54;9.10;99.90
26803;DHT22;14378;51.796;5.808;2023-05-24T02:06:55;9.10;99.90
26803;DHT22;14378;51.796;5.808;2023-05-24T02:08:56;9.00;99.90
26803;DHT22;14378;51.796;5.808;2023-05-24T02:10:57;9.00;99.90
26803;DHT22;14378;51.796;5.808;2023-05-24T02:12:58;8.90;99.90
26803;DHT22;14378;51.796;5.808;2023-05-24T02:14:59;8.80;99.90
26803;DHT22;14378;51.796;5.808;2023-05-24T02:17:01;8.80;99.90
26803;DHT22;14378;51.796;5.808;2023-05-24T02:19:17;8.80;99.90
26803;DHT22;14378;51.796;5.808;2023-05-24T02:21:18;8.80;99.90
26803;DHT22;14378;51.796;5.808;2023-05-24T02:23:18;8.80;99.90
26803;DHT22;14378;51.796;5.808;2023-05-24T02:25:23;8.80;99.90
26803;DHT22;14378;51.796;5.808;2023-05-24T02:27:24;8.80;99.90
26803;DHT22;14378;51.796;5.808;2023-05-24T02:29:25;8.80;99.90
26803;DHT22;14378;51.796;5.808;2023-05-24T02:31:26;8.70;99.90
26803;DHT22;14378;51.796;5.808;2023-05-24T02:33:29;8.70;99.90
26803;DHT22;14378;51.796;5.808;2023-05-24T02:35:31;8.70;99.90
26803;DHT22;14378;51.796;5.808;2023-05-24T02:37:33;8.70;99.90
26803;DHT22;14378;51.796;5.808;2023-05-24T02:39:34;8.70;99.90
26803;DHT22;14378;51.796;5.808;2023-05-24T02:41:36;8.70;99.90
26803;DHT22;14378;51.796;5.808;2023-05-24T02:43:47;8.70;99.90
26803;DHT22;14378;51.796;5.808;2023-05-24T02:45:48;8.70;99.90
26803;DHT22;14378;51.796;5.808;2023-05-24T02:47:49;8.60;99.90
26803;DHT22;14378;51.796;5.808;2023-05-24T02:49:55;8.60;99.90
26803;DHT22;14378;51.796;5.808;2023-05-24T02:51:56;8.60;99.90
26803;DHT22;14378;51.796;5.808;2023-05-24T02:53:57;8.60;99.90
26803;DHT22;14378;51.796;5.808;2023-05-24T02:56:00;8.60;99.90
26803;DHT22;14378;51.796;5.808;2023-05-24T02:58:06;8.60;99.90
26803;DHT22;14378;51.796;5.808;2023-05-24T03:00:08;8.60;99.90
26803;DHT22;14378;51.796;5.808;2023-05-24T03:02:13;8.60;99.90
26803;DHT22;14378;51.796;5.808;2023-05-24T03:04:15;8.60;99.90
26803;DHT22;14378;51.796;5.808;2023-05-24T03:06:16;8.60;99.90
26803;DHT22;14378;51.796;5.808;2023-05-24T03:08:20;8.60;99.90
26803;DHT22;14378;51.796;5.808;2023-05-24T03:10:21;8.60;99.90
26803;DHT22;14378;51.796;5.808;2023-05-24T03:12:22;8.60;99.90
26803;DHT22;14378;51.796;5.808;2023-05-24T03:14:23;8.50;99.90
26803;DHT22;14378;51.796;5.808;2023-05-24T03:16:25;8.50;99.90
26803;DHT22;14378;51.796;5.808;2023-05-24T03:18:26;8.50;99.90
26803;DHT22;14378;51.796;5.808;2023-05-24T03:20:28;8.50;99.90
26803;DHT22;14378;51.796;5.808;2023-05-24T03:22:50;8.40;99.90
26803;DHT22;14378;51.796;5.808;2023-05-24T03:24:53;8.40;99.90
26803;DHT22;14378;51.796;5.808;2023-05-24T03:26:54;8.30;99.90
26803;DHT22;14378;51.796;5.808;2023-05-24T03:28:56;8.30;99.90
26803;DHT22;14378;51.796;5.808;2023-05-24T03:31:04;8.20;99.90
26803;DHT22;14378;51.796;5.808;2023-05-24T03:33:07;8.20;99.90
26803;DHT22;14378;51.796;5.808;2023-05-24T03:35:08;8.20;99.90
26803;DHT22;14378;51.796;5.808;2023-05-24T03:37:12;8.20;99.90
26803;DHT22;14378;51.796;5.808;2023-05-24T03:39:15;8.20;99.90
26803;DHT22;14378;51.796;5.808;2023-05-24T03:41:29;8.30;99.90
26803;DHT22;14378;51.796;5.808;2023-05-24T03:43:33;8.30;99.90
26803;DHT22;14378;51.796;5.808;2023-05-24T03:45:38;8.20;99.90
26803;DHT22;14378;51.796;5.808;2023-05-24T03:47:38;8.20;99.90
26803;DHT22;14378;51.796;5.808;2023-05-24T03:49:40;8.20;99.90
26803;DHT22;14378;51.796;5.808;2023-05-24T03:51:41;8.10;99.90
26803;DHT22;14378;51.796;5.808;2023-05-24T03:53:42;8.10;99.90
26803;DHT22;14378;51.796;5.808;2023-05-24T03:55:43;8.10;99.90
26803;DHT22;14378;51.796;5.808;2023-05-24T03:57:46;8.10;99.90
26803;DHT22;14378;51.796;5.808;2023-05-24T03:59:47;8.10;99.90
26803;DHT22;14378;51.796;5.808;2023-05-24T04:01:48;8.10;99.90
26803;DHT22;14378;51.796;5.808;2023-05-24T04:03:50;8.20;99.90
26803;DHT22;14378;51.796;5.808;2023-05-24T04:05:55;8.20;99.90
26803;DHT22;14378;51.796;5.808;2023-05-24T04:07:57;8.20;99.90
26803;DHT22;14378;51.796;5.808;2023-05-24T04:09:58;8.20;99.90
26803;DHT22;14378;51.796;5.808;2023-05-24T04:12:01;8.20;99.90
26803;DHT22;14378;51.796;5.808;2023-05-24T04:14:02;8.20;99.90
26803;DHT22;14378;51.796;5.808;2023-05-24T04:16:04;8.20;99.90
26803;DHT22;14378;51.796;5.808;2023-05-24T04:18:05;8.20;99.90
26803;DHT22;14378;51.796;5.808;2023-05-24T04:20:09;8.20;99.90
26803;DHT22;14378;51.796;5.808;2023-05-24T04:22:10;8.10;99.90
26803;DHT22;14378;51.796;5.808;2023-05-24T04:24:11;8.10;99.90
26803;DHT22;14378;51.796;5.808;2023-05-24T04:26:13;8.10;99.90
26803;DHT22;14378;51.796;5.808;2023-05-24T04:28:14;8.20;99.90
26803;DHT22;14378;51.796;5.808;2023-05-24T04:30:15;8.20;99.90
26803;DHT22;14378;51.796;5.808;2023-05-24T04:32:17;8.20;99.90
26803;DHT22;14378;51.796;5.808;2023-05-24T04:34:20;8.20;99.90
26803;DHT22;14378;51.796;5.808;2023-05-24T04:36:21;8.20;99.90
26803;DHT22;14378;51.796;5.808;2023-05-24T04:38:24;8.20;99.90
26803;DHT22;14378;51.796;5.808;2023-05-24T04:40:25;8.20;99.90
26803;DHT22;14378;51.796;5.808;2023-05-24T04:42:26;8.20;99.90
26803;DHT22;14378;51.796;5.808;2023-05-24T04:44:31;8.30;99.90
26803;DHT22;14378;51.796;5.808;2023-05-24T04:46:33;8.30;99.90
26803;DHT22;14378;51.796;5.808;2023-05-24T04:48:36;8.30;99.90
26803;DHT22;14378;51.796;5.808;2023-05-24T04:50:37;8.40;99.90
26803;DHT22;14378;51.796;5.808;2023-05-24T04:52:39;8.40;99.90
26803;DHT22;14378;51.796;5.808;2023-05-24T04:54:40;8.40;99.90
26803;DHT22;14378;51.796;5.808;2023-05-24T04:56:40;8.50;99.90
26803;DHT22;14378;51.796;5.808;2023-05-24T04:58:42;8.50;99.90
26803;DHT22;14378;51.796;5.808;2023-05-24T05:00:43;8.50;99.90
26803;DHT22;14378;51.796;5.808;2023-05-24T05:02:44;8.60;99.90
26803;DHT22;14378;51.796;5.808;2023-05-24T05:04:45;8.60;99.90
26803;DHT22;14378;51.796;5.808;2023-05-24T05:06:52;8.60;99.90
26803;DHT22;14378;51.796;5.808;2023-05-24T05:08:53;8.60;99.90
26803;DHT22;14378;51.796;5.808;2023-05-24T05:10:54;8.70;99.90
26803;DHT22;14378;51.796;5.808;2023-05-24T05:12:56;8.70;99.90
26803;DHT22;14378;51.796;5.808;2023-05-24T05:14:57;8.70;99.90
26803;DHT22;14378;51.796;5.808;2023-05-24T05:16:58;8.70;99.90
26803;DHT22;14378;51.796;5.808;2023-05-24T05:19:01;8.80;99.90
26803;DHT22;14378;51.796;5.808;2023-05-24T05:21:05;8.90;99.90
26803;DHT22;14378;51.796;5.808;2023-05-24T05:23:06;8.90;99.90
26803;DHT22;14378;51.796;5.808;2023-05-24T05:25:09;8.90;99.90
26803;DHT22;14378;51.796;5.808;2023-05-24T05:27:10;9.00;99.90
26803;DHT22;14378;51.796;5.808;2023-05-24T05:29:11;9.10;99.90
26803;DHT22;14378;51.796;5.808;2023-05-24T05:31:12;9.10;99.90
26803;DHT22;14378;51.796;5.808;2023-05-24T05:33:15;9.20;99.90
26803;DHT22;14378;51.796;5.808;2023-05-24T05:35:16;9.20;99.90
26803;DHT22;14378;51.796;5.808;2023-05-24T05:37:17;9.30;99.90
26803;DHT22;14378;51.796;5.808;2023-05-24T05:39:18;9.40;99.90
26803;DHT22;14378;51.796;5.808;2023-05-24T05:41:21;9.40;99.90
26803;DHT22;14378;51.796;5.808;2023-05-24T05:43:22;9.50;99.90
26803;DHT22;14378;51.796;5.808;2023-05-24T05:45:24;9.50;99.90
26803;DHT22;14378;51.796;5.808;2023-05-24T05:47:25;9.60;99.90
26803;DHT22;14378;51.796;5.808;2023-05-24T05:49:26;9.70;99.90
26803;DHT22;14378;51.796;5.808;2023-05-24T05:51:27;9.70;99.90
26803;DHT22;14378;51.796;5.808;2023-05-24T05:53:28;9.80;99.90
26803;DHT22;14378;51.796;5.808;2023-05-24T05:55:30;9.90;99.90
26803;DHT22;14378;51.796;5.808;2023-05-24T05:57:34;10.00;99.90
26803;DHT22;14378;51.796;5.808;2023-05-24T05:59:35;10.10;99.90
26803;DHT22;14378;51.796;5.808;2023-05-24T06:01:37;10.10;99.90
26803;DHT22;14378;51.796;5.808;2023-05-24T06:03:43;10.20;99.90
26803;DHT22;14378;51.796;5.808;2023-05-24T06:05:44;10.30;99.90
26803;DHT22;14378;51.796;5.808;2023-05-24T06:07:45;10.40;99.90
26803;DHT22;14378;51.796;5.808;2023-05-24T06:09:46;10.40;99.90
26803;DHT22;14378;51.796;5.808;2023-05-24T06:11:48;10.50;99.90
26803;DHT22;14378;51.796;5.808;2023-05-24T06:13:48;10.60;99.90
26803;DHT22;14378;51.796;5.808;2023-05-24T06:15:51;10.70;99.90
26803;DHT22;14378;51.796;5.808;2023-05-24T06:17:52;10.80;99.90
26803;DHT22;14378;51.796;5.808;2023-05-24T06:19:54;10.80;99.90
26803;DHT22;14378;51.796;5.808;2023-05-24T06:21:55;10.90;99.90
26803;DHT22;14378;51.796;5.808;2023-05-24T06:23:57;11.00;99.90
26803;DHT22;14378;51.796;5.808;2023-05-24T06:25:59;11.10;99.90
26803;DHT22;14378;51.796;5.808;2023-05-24T06:28:01;11.20;99.90
26803;DHT22;14378;51.796;5.808;2023-05-24T06:30:05;11.40;99.90
26803;DHT22;14378;51.796;5.808;2023-05-24T06:32:07;11.50;99.90
26803;DHT22;14378;51.796;5.808;2023-05-24T06:34:08;11.60;99.90
26803;DHT22;14378;51.796;5.808;2023-05-24T06:36:09;11.70;99.90
26803;DHT22;14378;51.796;5.808;2023-05-24T06:38:10;11.80;99.90
26803;DHT22;14378;51.796;5.808;2023-05-24T06:40:12;11.90;99.90
26803;DHT22;14378;51.796;5.808;2023-05-24T06:42:13;12.00;99.90
26803;DHT22;14378;51.796;5.808;2023-05-24T06:44:20;12.10;99.90
26803;DHT22;14378;51.796;5.808;2023-05-24T06:46:23;12.30;99.90
26803;DHT22;14378;51.796;5.808;2023-05-24T06:48:24;12.50;99.90
26803;DHT22;14378;51.796;5.808;2023-05-24T06:50:27;12.60;99.90
26803;DHT22;14378;51.796;5.808;2023-05-24T06:52:28;12.80;99.90
26803;DHT22;14378;51.796;5.808;2023-05-24T06:54:30;12.90;99.90
26803;DHT22;14378;51.796;5.808;2023-05-24T06:56:59;13.00;99.90
26803;DHT22;14378;51.796;5.808;2023-05-24T06:59:00;13.20;99.90
26803;DHT22;14378;51.796;5.808;2023-05-24T07:01:01;13.20;99.90
26803;DHT22;14378;51.796;5.808;2023-05-24T07:03:04;13.40;99.90
26803;DHT22;14378;51.796;5.808;2023-05-24T07:05:06;13.50;99.90
26803;DHT22;14378;51.796;5.808;2023-05-24T07:07:11;13.60;99.90
26803;DHT22;14378;51.796;5.808;2023-05-24T07:09:13;13.70;99.90
26803;DHT22;14378;51.796;5.808;2023-05-24T07:11:15;13.90;99.90
26803;DHT22;14378;51.796;5.808;2023-05-24T07:13:16;13.90;99.90
26803;DHT22;14378;51.796;5.808;2023-05-24T07:15:17;14.00;99.90
26803;DHT22;14378;51.796;5.808;2023-05-24T07:17:18;14.00;99.90
26803;DHT22;14378;51.796;5.808;2023-05-24T07:19:20;14.10;99.90
26803;DHT22;14378;51.796;5.808;2023-05-24T07:21:21;14.10;99.90
26803;DHT22;14378;51.796;5.808;2023-05-24T07:23:22;14.20;99.90
26803;DHT22;14378;51.796;5.808;2023-05-24T07:25:23;14.20;99.90
26803;DHT22;14378;51.796;5.808;2023-05-24T07:27:25;14.30;99.90
26803;DHT22;14378;51.796;5.808;2023-05-24T07:29:27;14.30;99.90
26803;DHT22;14378;51.796;5.808;2023-05-24T07:31:28;14.40;99.90
26803;DHT22;14378;51.796;5.808;2023-05-24T07:33:30;14.50;99.90
26803;DHT22;14378;51.796;5.808;2023-05-24T07:35:31;14.50;99.90
26803;DHT22;14378;51.796;5.808;2023-05-24T07:37:32;14.60;99.90
26803;DHT22;14378;51.796;5.808;2023-05-24T07:39:33;14.60;99.90
26803;DHT22;14378;51.796;5.808;2023-05-24T07:41:35;14.60;99.90
26803;DHT22;14378;51.796;5.808;2023-05-24T07:43:36;14.60;99.90
26803;DHT22;14378;51.796;5.808;2023-05-24T07:45:37;14.60;99.90
26803;DHT22;14378;51.796;5.808;2023-05-24T07:47:38;14.60;99.90
26803;DHT22;14378;51.796;5.808;2023-05-24T07:49:43;14.60;99.90
26803;DHT22;14378;51.796;5.808;2023-05-24T07:51:44;14.60;99.90
26803;DHT22;14378;51.796;5.808;2023-05-24T07:53:46;14.60;99.90
26803;DHT22;14378;51.796;5.808;2023-05-24T07:55:46;14.60;99.90
26803;DHT22;14378;51.796;5.808;2023-05-24T07:57:48;14.70;99.90
26803;DHT22;14378;51.796;5.808;2023-05-24T07:59:49;14.70;99.90
26803;DHT22;14378;51.796;5.808;2023-05-24T08:01:56;14.80;99.90
26803;DHT22;14378;51.796;5.808;2023-05-24T08:04:03;14.90;99.90
26803;DHT22;14378;51.796;5.808;2023-05-24T08:06:04;14.90;99.90
26803;DHT22;14378;51.796;5.808;2023-05-24T08:08:05;15.00;99.90
26803;DHT22;14378;51.796;5.808;2023-05-24T08:10:11;15.10;99.90
26803;DHT22;14378;51.796;5.808;2023-05-24T08:12:13;15.10;99.90
26803;DHT22;14378;51.796;5.808;2023-05-24T08:14:14;15.30;99.90
26803;DHT22;14378;51.796;5.808;2023-05-24T08:16:15;15.40;99.90
26803;DHT22;14378;51.796;5.808;2023-05-24T08:18:16;15.50;99.90
26803;DHT22;14378;51.796;5.808;2023-05-24T08:20:17;15.70;99.90
26803;DHT22;14378;51.796;5.808;2023-05-24T08:22:18;15.80;99.90
26803;DHT22;14378;51.796;5.808;2023-05-24T08:24:21;16.00;99.90
26803;DHT22;14378;51.796;5.808;2023-05-24T08:26:22;16.00;99.90
26803;DHT22;14378;51.796;5.808;2023-05-24T08:28:24;16.00;99.90
26803;DHT22;14378;51.796;5.808;2023-05-24T08:30:25;16.10;99.90
26803;DHT22;14378;51.796;5.808;2023-05-24T08:32:26;16.10;99.90
26803;DHT22;14378;51.796;5.808;2023-05-24T08:34:27;16.20;99.90
26803;DHT22;14378;51.796;5.808;2023-05-24T08:36:29;16.30;99.90
26803;DHT22;14378;51.796;5.808;2023-05-24T08:38:33;16.40;99.90
26803;DHT22;14378;51.796;5.808;2023-05-24T08:40:34;16.50;99.90
26803;DHT22;14378;51.796;5.808;2023-05-24T08:42:37;16.50;99.90
26803;DHT22;14378;51.796;5.808;2023-05-24T08:44:47;16.70;99.90
26803;DHT22;14378;51.796;5.808;2023-05-24T08:46:52;16.70;99.90
26803;DHT22;14378;51.796;5.808;2023-05-24T08:48:56;16.70;99.90
26803;DHT22;14378;51.796;5.808;2023-05-24T08:50:58;16.70;99.90
26803;DHT22;14378;51.796;5.808;2023-05-24T08:53:00;16.80;99.90
26803;DHT22;14378;51.796;5.808;2023-05-24T08:55:04;16.90;99.90
26803;DHT22;14378;51.796;5.808;2023-05-24T08:57:06;17.00;99.90
26803;DHT22;14378;51.796;5.808;2023-05-24T08:59:07;17.00;99.90
26803;DHT22;14378;51.796;5.808;2023-05-24T09:01:10;17.10;99.90
26803;DHT22;14378;51.796;5.808;2023-05-24T09:03:13;17.20;99.90
26803;DHT22;14378;51.796;5.808;2023-05-24T09:05:15;17.20;99.90
26803;DHT22;14378;51.796;5.808;2023-05-24T09:07:21;17.20;99.90
26803;DHT22;14378;51.796;5.808;2023-05-24T09:09:29;17.10;99.90
26803;DHT22;14378;51.796;5.808;2023-05-24T09:11:31;17.10;99.90
26803;DHT22;14378;51.796;5.808;2023-05-24T09:13:33;17.10;99.90
26803;DHT22;14378;51.796;5.808;2023-05-24T09:15:35;17.10;99.90
26803;DHT22;14378;51.796;5.808;2023-05-24T09:17:40;17.20;99.90
26803;DHT22;14378;51.796;5.808;2023-05-24T09:19:48;17.10;99.90
26803;DHT22;14378;51.796;5.808;2023-05-24T09:21:54;17.10;99.90
26803;DHT22;14378;51.796;5.808;2023-05-24T09:23:55;17.10;99.90
26803;DHT22;14378;51.796;5.808;2023-05-24T09:26:05;17.00;99.90
26803;DHT22;14378;51.796;5.808;2023-05-24T09:28:06;17.00;99.90
26803;DHT22;14378;51.796;5.808;2023-05-24T09:30:09;17.00;99.90
26803;DHT22;14378;51.796;5.808;2023-05-24T09:32:11;17.00;99.90
26803;DHT22;14378;51.796;5.808;2023-05-24T09:34:14;17.10;99.90
26803;DHT22;14378;51.796;5.808;2023-05-24T09:36:16;17.10;99.90
26803;DHT22;14378;51.796;5.808;2023-05-24T09:38:27;17.10;99.90
26803;DHT22;14378;51.796;5.808;2023-05-24T09:40:30;17.20;99.90
26803;DHT22;14378;51.796;5.808;2023-05-24T09:42:31;17.20;99.90
26803;DHT22;14378;51.796;5.808;2023-05-24T09:44:32;17.20;99.90
26803;DHT22;14378;51.796;5.808;2023-05-24T09:46:36;17.20;99.90
26803;DHT22;14378;51.796;5.808;2023-05-24T09:48:38;17.20;99.90
26803;DHT22;14378;51.796;5.808;2023-05-24T09:50:40;17.10;99.90
26803;DHT22;14378;51.796;5.808;2023-05-24T09:52:41;17.10;99.90
26803;DHT22;14378;51.796;5.808;2023-05-24T09:54:43;17.10;99.90
26803;DHT22;14378;51.796;5.808;2023-05-24T09:56:47;17.10;99.90
26803;DHT22;14378;51.796;5.808;2023-05-24T09:58:48;17.00;99.90
26803;DHT22;14378;51.796;5.808;2023-05-24T10:01:03;17.00;99.90
26803;DHT22;14378;51.796;5.808;2023-05-24T10:03:06;17.00;99.90
26803;DHT22;14378;51.796;5.808;2023-05-24T10:05:09;16.90;99.90
26803;DHT22;14378;51.796;5.808;2023-05-24T10:07:11;16.90;99.90
26803;DHT22;14378;51.796;5.808;2023-05-24T10:09:14;17.00;99.90
26803;DHT22;14378;51.796;5.808;2023-05-24T10:11:15;17.00;99.90
26803;DHT22;14378;51.796;5.808;2023-05-24T10:13:22;16.90;99.90
26803;DHT22;14378;51.796;5.808;2023-05-24T10:15:30;17.00;99.90
26803;DHT22;14378;51.796;5.808;2023-05-24T10:17:32;16.90;99.90
26803;DHT22;14378;51.796;5.808;2023-05-24T10:19:34;17.00;99.90
26803;DHT22;14378;51.796;5.808;2023-05-24T10:21:39;17.00;99.90
26803;DHT22;14378;51.796;5.808;2023-05-24T10:23:43;17.00;99.90
26803;DHT22;14378;51.796;5.808;2023-05-24T10:28:07;17.10;99.90
26803;DHT22;14378;51.796;5.808;2023-05-24T10:30:15;17.20;99.90
26803;DHT22;14378;51.796;5.808;2023-05-24T10:32:18;17.20;99.90
26803;DHT22;14378;51.796;5.808;2023-05-24T10:34:23;17.30;99.90
26803;DHT22;14378;51.796;5.808;2023-05-24T10:36:24;17.40;99.90
26803;DHT22;14378;51.796;5.808;2023-05-24T10:38:28;17.50;99.90
26803;DHT22;14378;51.796;5.808;2023-05-24T10:40:31;17.60;99.90
26803;DHT22;14378;51.796;5.808;2023-05-24T10:42:32;17.70;99.90
26803;DHT22;14378;51.796;5.808;2023-05-24T10:44:38;17.70;99.90
26803;DHT22;14378;51.796;5.808;2023-05-24T10:47:16;17.70;99.90
26803;DHT22;14378;51.796;5.808;2023-05-24T10:49:21;17.70;99.90
26803;DHT22;14378;51.796;5.808;2023-05-24T10:51:35;17.70;99.90
26803;DHT22;14378;51.796;5.808;2023-05-24T10:53:38;17.70;99.90
26803;DHT22;14378;51.796;5.808;2023-05-24T10:57:57;17.80;99.90
26803;DHT22;14378;51.796;5.808;2023-05-24T11:02:18;17.90;99.90
26803;DHT22;14378;51.796;5.808;2023-05-24T11:04:21;17.90;99.90
26803;DHT22;14378;51.796;5.808;2023-05-24T11:08:47;17.80;99.90
26803;DHT22;14378;51.796;5.808;2023-05-24T11:10:48;17.80;99.90
26803;DHT22;14378;51.796;5.808;2023-05-24T11:12:58;17.80;99.90
26803;DHT22;14378;51.796;5.808;2023-05-24T11:15:01;17.90;99.90
26803;DHT22;14378;51.796;5.808;2023-05-24T11:17:02;18.00;99.90
26803;DHT22;14378;51.796;5.808;2023-05-24T11:19:19;18.10;99.90
26803;DHT22;14378;51.796;5.808;2023-05-24T11:21:21;18.20;99.90
26803;DHT22;14378;51.796;5.808;2023-05-24T11:23:23;18.30;99.90
26803;DHT22;14378;51.796;5.808;2023-05-24T11:25:25;18.40;99.90
26803;DHT22;14378;51.796;5.808;2023-05-24T11:27:30;18.40;99.90
26803;DHT22;14378;51.796;5.808;2023-05-24T11:29:44;18.50;99.90
26803;DHT22;14378;51.796;5.808;2023-05-24T11:31:53;18.70;99.90
26803;DHT22;14378;51.796;5.808;2023-05-24T11:33:56;18.90;99.90
26803;DHT22;14378;51.796;5.808;2023-05-24T11:35:57;19.20;99.90
26803;DHT22;14378;51.796;5.808;2023-05-24T11:37:59;19.40;99.90
26803;DHT22;14378;51.796;5.808;2023-05-24T11:40:01;19.60;99.90
26803;DHT22;14378;51.796;5.808;2023-05-24T11:42:09;19.60;99.90
26803;DHT22;14378;51.796;5.808;2023-05-24T11:44:11;19.60;99.90
26803;DHT22;14378;51.796;5.808;2023-05-24T11:46:12;19.60;99.90
26803;DHT22;14378;51.796;5.808;2023-05-24T11:48:14;19.70;99.90
26803;DHT22;14378;51.796;5.808;2023-05-24T11:50:15;19.90;99.90
26803;DHT22;14378;51.796;5.808;2023-05-24T11:52:25;20.00;99.40
26803;DHT22;14378;51.796;5.808;2023-05-24T11:54:29;20.10;99.70
26803;DHT22;14378;51.796;5.808;2023-05-24T11:56:36;20.10;99.00
26803;DHT22;14378;51.796;5.808;2023-05-24T11:58:48;20.20;99.20
26803;DHT22;14378;51.796;5.808;2023-05-24T12:00:51;20.40;99.10
26803;DHT22;14378;51.796;5.808;2023-05-24T12:02:55;20.80;99.60
26803;DHT22;14378;51.796;5.808;2023-05-24T12:05:06;20.90;99.00
26803;DHT22;14378;51.796;5.808;2023-05-24T12:07:12;20.90;98.10
26803;DHT22;14378;51.796;5.808;2023-05-24T12:09:14;20.90;97.30
26803;DHT22;14378;51.796;5.808;2023-05-24T12:11:15;20.80;97.00
26803;DHT22;14378;51.796;5.808;2023-05-24T12:13:22;20.70;96.80
26803;DHT22;14378;51.796;5.808;2023-05-24T12:15:23;20.80;97.50
26803;DHT22;14378;51.796;5.808;2023-05-24T12:17:24;20.80;98.50
26803;DHT22;14378;51.796;5.808;2023-05-24T12:19:30;21.00;98.70
26803;DHT22;14378;51.796;5.808;2023-05-24T12:21:34;21.40;99.40
26803;DHT22;14378;51.796;5.808;2023-05-24T12:23:36;21.70;98.70
26803;DHT22;14378;51.796;5.808;2023-05-24T12:25:39;22.00;98.50
26803;DHT22;14378;51.796;5.808;2023-05-24T12:27:42;22.00;96.40
26803;DHT22;14378;51.796;5.808;2023-05-24T12:29:47;22.00;96.80
26803;DHT22;14378;51.796;5.808;2023-05-24T12:31:49;22.00;95.60
26803;DHT22;14378;51.796;5.808;2023-05-24T12:33:54;21.90;96.00
26803;DHT22;14378;51.796;5.808;2023-05-24T12:35:56;21.80;95.50
26803;DHT22;14378;51.796;5.808;2023-05-24T12:37:59;21.80;95.50
26803;DHT22;14378;51.796;5.808;2023-05-24T12:40:00;21.80;95.50
26803;DHT22;14378;51.796;5.808;2023-05-24T12:42:05;21.60;95.30
26803;DHT22;14378;51.796;5.808;2023-05-24T12:44:06;21.60;95.70
26803;DHT22;14378;51.796;5.808;2023-05-24T12:46:07;21.60;95.50
26803;DHT22;14378;51.796;5.808;2023-05-24T12:48:08;21.60;96.10
26803;DHT22;14378;51.796;5.808;2023-05-24T12:50:11;21.60;96.30
26803;DHT22;14378;51.796;5.808;2023-05-24T12:52:13;21.80;96.20
26803;DHT22;14378;51.796;5.808;2023-05-24T12:54:17;22.00;96.80
26803;DHT22;14378;51.796;5.808;2023-05-24T12:56:18;22.10;96.20
26803;DHT22;14378;51.796;5.808;2023-05-24T12:58:21;22.20;97.50
26803;DHT22;14378;51.796;5.808;2023-05-24T13:00:26;22.50;98.20
26803;DHT22;14378;51.796;5.808;2023-05-24T13:02:28;22.80;97.00
26803;DHT22;14378;51.796;5.808;2023-05-24T13:04:29;22.80;94.80
26803;DHT22;14378;51.796;5.808;2023-05-24T13:06:33;22.80;94.70
26803;DHT22;14378;51.796;5.808;2023-05-24T13:08:34;22.70;94.80
26803;DHT22;14378;51.796;5.808;2023-05-24T13:10:35;22.50;94.50
26803;DHT22;14378;51.796;5.808;2023-05-24T13:12:37;22.40;94.50
26803;DHT22;14378;51.796;5.808;2023-05-24T13:14:38;22.30;95.10
26803;DHT22;14378;51.796;5.808;2023-05-24T13:16:42;22.20;95.60
26803;DHT22;14378;51.796;5.808;2023-05-24T13:18:44;22.20;94.80
26803;DHT22;14378;51.796;5.808;2023-05-24T13:20:49;22.10;94.90
26803;DHT22;14378;51.796;5.808;2023-05-24T13:22:54;22.20;95.60
26803;DHT22;14378;51.796;5.808;2023-05-24T13:24:55;22.50;96.50
26803;DHT22;14378;51.796;5.808;2023-05-24T13:26:56;22.80;96.80
26803;DHT22;14378;51.796;5.808;2023-05-24T13:28:57;22.80;95.40
26803;DHT22;14378;51.796;5.808;2023-05-24T13:30:59;22.80;94.50
26803;DHT22;14378;51.796;5.808;2023-05-24T13:33:00;22.80;95.10